sensor_id;sensor_type;location;lat;lon;timestamp;P1;durP1;ratioP1;P2;durP2;ratioP2
81908;SDS011;71372;43.514;1.512;2023-12-20T00:01:35;15.02;;;9.18;;
81908;SDS011;71372;43.514;1.512;2023-12-20T00:04:02;16.83;;;9.23;;
81908;SDS011;71372;43.514;1.512;2023-12-20T00:06:29;15.13;;;9.07;;
81908;SDS011;71372;43.514;1.512;2023-12-20T00:08:55;12.30;;;7.80;;
81908;SDS011;71372;43.514;1.512;2023-12-20T00:11:21;14.52;;;8.55;;
81908;SDS011;71372;43.514;1.512;2023-12-20T00:13:48;14.05;;;8.65;;
81908;SDS011;71372;43.514;1.512;2023-12-20T00:16:14;17.48;;;8.77;;
81908;SDS011;71372;43.514;1.512;2023-12-20T00:18:40;15.68;;;8.07;;
81908;SDS011;71372;43.514;1.512;2023-12-20T00:21:06;13.95;;;9.20;;
81908;SDS011;71372;43.514;1.512;2023-12-20T00:23:32;13.23;;;8.27;;
81908;SDS011;71372;43.514;1.512;2023-12-20T00:25:58;13.98;;;8.60;;
81908;SDS011;71372;43.514;1.512;2023-12-20T00:28:24;15.30;;;9.25;;
81908;SDS011;71372;43.514;1.512;2023-12-20T00:30:50;13.73;;;8.18;;
81908;SDS011;71372;43.514;1.512;2023-12-20T00:33:16;15.10;;;8.68;;
81908;SDS011;71372;43.514;1.512;2023-12-20T00:35:41;16.92;;;8.38;;
81908;SDS011;71372;43.514;1.512;2023-12-20T00:38:07;13.38;;;8.50;;
81908;SDS011;71372;43.514;1.512;2023-12-20T00:40:34;11.88;;;7.63;;
81908;SDS011;71372;43.514;1.512;2023-12-20T00:43:00;11.50;;;7.90;;
81908;SDS011;71372;43.514;1.512;2023-12-20T00:45:26;12.98;;;7.57;;
81908;SDS011;71372;43.514;1.512;2023-12-20T00:47:52;15.27;;;8.82;;
81908;SDS011;71372;43.514;1.512;2023-12-20T00:50:18;12.95;;;7.93;;
81908;SDS011;71372;43.514;1.512;2023-12-20T00:52:44;14.20;;;9.18;;
81908;SDS011;71372;43.514;1.512;2023-12-20T00:55:10;14.48;;;8.40;;
81908;SDS011;71372;43.514;1.512;2023-12-20T00:57:36;14.13;;;9.73;;
81908;SDS011;71372;43.514;1.512;2023-12-20T01:00:01;14.73;;;8.13;;
81908;SDS011;71372;43.514;1.512;2023-12-20T01:02:28;12.15;;;8.57;;
81908;SDS011;71372;43.514;1.512;2023-12-20T01:04:53;14.95;;;8.50;;
81908;SDS011;71372;43.514;1.512;2023-12-20T01:07:19;12.93;;;8.43;;
81908;SDS011;71372;43.514;1.512;2023-12-20T01:09:45;11.27;;;7.47;;
81908;SDS011;71372;43.514;1.512;2023-12-20T01:12:11;12.40;;;8.40;;
81908;SDS011;71372;43.514;1.512;2023-12-20T01:14:37;13.02;;;8.45;;
81908;SDS011;71372;43.514;1.512;2023-12-20T01:17:04;12.63;;;8.13;;
81908;SDS011;71372;43.514;1.512;2023-12-20T01:19:30;13.85;;;7.90;;
81908;SDS011;71372;43.514;1.512;2023-12-20T01:21:56;13.60;;;7.40;;
81908;SDS011;71372;43.514;1.512;2023-12-20T01:24:22;10.90;;;7.03;;
81908;SDS011;71372;43.514;1.512;2023-12-20T01:26:48;12.95;;;8.15;;
81908;SDS011;71372;43.514;1.512;2023-12-20T01:29:14;11.55;;;7.78;;
81908;SDS011;71372;43.514;1.512;2023-12-20T01:31:41;11.77;;;7.97;;
81908;SDS011;71372;43.514;1.512;2023-12-20T01:34:07;11.63;;;7.18;;
81908;SDS011;71372;43.514;1.512;2023-12-20T01:36:33;11.73;;;6.93;;
81908;SDS011;71372;43.514;1.512;2023-12-20T01:38:59;10.70;;;7.75;;
81908;SDS011;71372;43.514;1.512;2023-12-20T01:41:25;12.45;;;8.15;;
81908;SDS011;71372;43.514;1.512;2023-12-20T01:43:51;13.15;;;7.82;;
81908;SDS011;71372;43.514;1.512;2023-12-20T01:46:19;11.57;;;7.53;;
81908;SDS011;71372;43.514;1.512;2023-12-20T01:48:46;11.63;;;7.43;;
81908;SDS011;71372;43.514;1.512;2023-12-20T01:51:13;11.23;;;7.40;;
81908;SDS011;71372;43.514;1.512;2023-12-20T01:53:39;10.60;;;7.38;;
81908;SDS011;71372;43.514;1.512;2023-12-20T01:56:07;11.10;;;7.65;;
81908;SDS011;71372;43.514;1.512;2023-12-20T01:58:34;10.57;;;6.72;;
81908;SDS011;71372;43.514;1.512;2023-12-20T02:01:02;10.32;;;7.07;;
81908;SDS011;71372;43.514;1.512;2023-12-20T02:03:28;11.95;;;6.82;;
81908;SDS011;71372;43.514;1.512;2023-12-20T02:05:54;9.43;;;6.90;;
81908;SDS011;71372;43.514;1.512;2023-12-20T02:08:20;11.98;;;6.63;;
81908;SDS011;71372;43.514;1.512;2023-12-20T02:10:46;8.73;;;6.47;;
81908;SDS011;71372;43.514;1.512;2023-12-20T02:13:12;10.32;;;6.93;;
81908;SDS011;71372;43.514;1.512;2023-12-20T02:15:38;10.63;;;6.82;;
81908;SDS011;71372;43.514;1.512;2023-12-20T02:18:07;9.73;;;6.78;;
81908;SDS011;71372;43.514;1.512;2023-12-20T02:20:33;9.45;;;6.63;;
81908;SDS011;71372;43.514;1.512;2023-12-20T02:22:59;10.30;;;5.93;;
81908;SDS011;71372;43.514;1.512;2023-12-20T02:25:24;8.35;;;6.38;;
81908;SDS011;71372;43.514;1.512;2023-12-20T02:27:50;10.05;;;6.35;;
81908;SDS011;71372;43.514;1.512;2023-12-20T02:30:17;9.63;;;6.35;;
81908;SDS011;71372;43.514;1.512;2023-12-20T02:32:43;9.82;;;6.53;;
81908;SDS011;71372;43.514;1.512;2023-12-20T02:35:09;10.18;;;6.15;;
81908;SDS011;71372;43.514;1.512;2023-12-20T02:37:35;8.48;;;6.35;;
81908;SDS011;71372;43.514;1.512;2023-12-20T02:40:01;8.68;;;6.00;;
81908;SDS011;71372;43.514;1.512;2023-12-20T02:42:26;8.77;;;6.13;;
81908;SDS011;71372;43.514;1.512;2023-12-20T02:44:52;9.40;;;6.25;;
81908;SDS011;71372;43.514;1.512;2023-12-20T02:47:18;11.07;;;6.63;;
81908;SDS011;71372;43.514;1.512;2023-12-20T02:49:44;9.02;;;6.30;;
81908;SDS011;71372;43.514;1.512;2023-12-20T02:52:10;9.02;;;6.40;;
81908;SDS011;71372;43.514;1.512;2023-12-20T02:54:36;9.32;;;6.43;;
81908;SDS011;71372;43.514;1.512;2023-12-20T02:57:02;9.02;;;6.60;;
81908;SDS011;71372;43.514;1.512;2023-12-20T02:59:28;8.98;;;6.05;;
81908;SDS011;71372;43.514;1.512;2023-12-20T03:01:54;7.65;;;6.43;;
81908;SDS011;71372;43.514;1.512;2023-12-20T03:04:20;9.27;;;6.25;;
81908;SDS011;71372;43.514;1.512;2023-12-20T03:06:46;10.50;;;7.00;;
81908;SDS011;71372;43.514;1.512;2023-12-20T03:09:12;10.02;;;6.80;;
81908;SDS011;71372;43.514;1.512;2023-12-20T03:11:38;11.20;;;6.65;;
81908;SDS011;71372;43.514;1.512;2023-12-20T03:14:03;8.82;;;6.50;;
81908;SDS011;71372;43.514;1.512;2023-12-20T03:16:29;11.60;;;7.40;;
81908;SDS011;71372;43.514;1.512;2023-12-20T03:18:56;10.73;;;7.95;;
81908;SDS011;71372;43.514;1.512;2023-12-20T03:21:22;11.98;;;7.28;;
81908;SDS011;71372;43.514;1.512;2023-12-20T03:23:48;10.95;;;7.13;;
81908;SDS011;71372;43.514;1.512;2023-12-20T03:26:14;12.55;;;8.10;;
81908;SDS011;71372;43.514;1.512;2023-12-20T03:28:40;12.25;;;8.50;;
81908;SDS011;71372;43.514;1.512;2023-12-20T03:31:06;11.52;;;7.80;;
81908;SDS011;71372;43.514;1.512;2023-12-20T03:33:32;9.65;;;7.32;;
81908;SDS011;71372;43.514;1.512;2023-12-20T03:35:58;11.43;;;7.13;;
81908;SDS011;71372;43.514;1.512;2023-12-20T03:38:24;12.88;;;7.90;;
81908;SDS011;71372;43.514;1.512;2023-12-20T03:40:50;11.10;;;7.65;;
81908;SDS011;71372;43.514;1.512;2023-12-20T03:43:16;11.48;;;7.90;;
81908;SDS011;71372;43.514;1.512;2023-12-20T03:45:42;12.02;;;8.07;;
81908;SDS011;71372;43.514;1.512;2023-12-20T03:48:08;12.98;;;8.90;;
81908;SDS011;71372;43.514;1.512;2023-12-20T03:50:35;11.27;;;8.05;;
81908;SDS011;71372;43.514;1.512;2023-12-20T03:53:01;11.13;;;7.43;;
81908;SDS011;71372;43.514;1.512;2023-12-20T03:55:27;12.00;;;7.50;;
81908;SDS011;71372;43.514;1.512;2023-12-20T03:57:53;12.00;;;8.13;;
81908;SDS011;71372;43.514;1.512;2023-12-20T04:00:19;10.70;;;7.18;;
81908;SDS011;71372;43.514;1.512;2023-12-20T04:02:45;10.75;;;7.75;;
81908;SDS011;71372;43.514;1.512;2023-12-20T04:05:11;14.32;;;7.65;;
81908;SDS011;71372;43.514;1.512;2023-12-20T04:07:37;12.27;;;7.85;;
81908;SDS011;71372;43.514;1.512;2023-12-20T04:10:04;13.15;;;7.78;;
81908;SDS011;71372;43.514;1.512;2023-12-20T04:12:31;12.23;;;8.52;;
81908;SDS011;71372;43.514;1.512;2023-12-20T04:14:57;13.57;;;8.63;;
81908;SDS011;71372;43.514;1.512;2023-12-20T04:17:23;13.90;;;8.30;;
81908;SDS011;71372;43.514;1.512;2023-12-20T04:19:49;12.90;;;8.52;;
81908;SDS011;71372;43.514;1.512;2023-12-20T04:22:16;15.68;;;9.15;;
81908;SDS011;71372;43.514;1.512;2023-12-20T04:24:43;15.95;;;8.13;;
81908;SDS011;71372;43.514;1.512;2023-12-20T04:27:09;13.95;;;8.25;;
81908;SDS011;71372;43.514;1.512;2023-12-20T04:29:35;12.25;;;7.45;;
81908;SDS011;71372;43.514;1.512;2023-12-20T04:32:00;19.20;;;8.55;;
81908;SDS011;71372;43.514;1.512;2023-12-20T04:34:26;14.40;;;8.55;;
81908;SDS011;71372;43.514;1.512;2023-12-20T04:36:53;9.93;;;7.43;;
81908;SDS011;71372;43.514;1.512;2023-12-20T04:39:18;12.27;;;7.85;;
81908;SDS011;71372;43.514;1.512;2023-12-20T04:41:44;9.20;;;6.88;;
81908;SDS011;71372;43.514;1.512;2023-12-20T04:44:10;13.90;;;6.53;;
81908;SDS011;71372;43.514;1.512;2023-12-20T04:46:36;15.68;;;6.78;;
81908;SDS011;71372;43.514;1.512;2023-12-20T04:49:02;10.95;;;6.97;;
81908;SDS011;71372;43.514;1.512;2023-12-20T04:51:28;9.48;;;6.40;;
81908;SDS011;71372;43.514;1.512;2023-12-20T04:53:54;8.95;;;6.57;;
81908;SDS011;71372;43.514;1.512;2023-12-20T04:56:20;9.05;;;6.13;;
81908;SDS011;71372;43.514;1.512;2023-12-20T04:58:46;6.85;;;4.47;;
81908;SDS011;71372;43.514;1.512;2023-12-20T05:01:12;7.68;;;5.03;;
81908;SDS011;71372;43.514;1.512;2023-12-20T05:03:38;8.05;;;4.82;;
81908;SDS011;71372;43.514;1.512;2023-12-20T05:06:04;5.93;;;4.40;;
81908;SDS011;71372;43.514;1.512;2023-12-20T05:08:30;7.22;;;5.18;;
81908;SDS011;71372;43.514;1.512;2023-12-20T05:10:56;6.47;;;4.63;;
81908;SDS011;71372;43.514;1.512;2023-12-20T05:13:22;7.55;;;4.13;;
81908;SDS011;71372;43.514;1.512;2023-12-20T05:15:48;6.07;;;4.85;;
81908;SDS011;71372;43.514;1.512;2023-12-20T05:18:14;7.18;;;4.88;;
81908;SDS011;71372;43.514;1.512;2023-12-20T05:20:40;5.88;;;3.75;;
81908;SDS011;71372;43.514;1.512;2023-12-20T05:23:06;6.65;;;4.05;;
81908;SDS011;71372;43.514;1.512;2023-12-20T05:25:32;5.97;;;3.83;;
81908;SDS011;71372;43.514;1.512;2023-12-20T05:27:58;8.38;;;4.63;;
81908;SDS011;71372;43.514;1.512;2023-12-20T05:30:24;6.63;;;4.10;;
81908;SDS011;71372;43.514;1.512;2023-12-20T05:32:50;5.50;;;4.00;;
81908;SDS011;71372;43.514;1.512;2023-12-20T05:35:16;6.85;;;4.60;;
81908;SDS011;71372;43.514;1.512;2023-12-20T05:37:43;7.40;;;3.67;;
81908;SDS011;71372;43.514;1.512;2023-12-20T05:40:08;7.07;;;3.83;;
81908;SDS011;71372;43.514;1.512;2023-12-20T05:42:37;3.25;;;2.78;;
81908;SDS011;71372;43.514;1.512;2023-12-20T05:45:04;7.78;;;3.03;;
81908;SDS011;71372;43.514;1.512;2023-12-20T05:47:31;4.32;;;3.03;;
81908;SDS011;71372;43.514;1.512;2023-12-20T05:49:57;10.05;;;3.30;;
81908;SDS011;71372;43.514;1.512;2023-12-20T05:52:23;4.07;;;2.85;;
81908;SDS011;71372;43.514;1.512;2023-12-20T05:54:49;12.82;;;3.63;;
81908;SDS011;71372;43.514;1.512;2023-12-20T05:57:15;4.95;;;3.10;;
81908;SDS011;71372;43.514;1.512;2023-12-20T05:59:41;6.85;;;2.70;;
81908;SDS011;71372;43.514;1.512;2023-12-20T06:02:07;3.55;;;2.65;;
81908;SDS011;71372;43.514;1.512;2023-12-20T06:04:32;7.80;;;2.75;;
81908;SDS011;71372;43.514;1.512;2023-12-20T06:06:58;3.25;;;2.47;;
81908;SDS011;71372;43.514;1.512;2023-12-20T06:09:26;4.13;;;2.90;;
81908;SDS011;71372;43.514;1.512;2023-12-20T06:11:52;3.78;;;2.88;;
81908;SDS011;71372;43.514;1.512;2023-12-20T06:14:18;3.72;;;2.08;;
81908;SDS011;71372;43.514;1.512;2023-12-20T06:16:45;4.68;;;2.35;;
81908;SDS011;71372;43.514;1.512;2023-12-20T06:19:11;3.70;;;2.55;;
81908;SDS011;71372;43.514;1.512;2023-12-20T06:21:37;3.67;;;2.70;;
81908;SDS011;71372;43.514;1.512;2023-12-20T06:24:03;3.63;;;2.28;;
81908;SDS011;71372;43.514;1.512;2023-12-20T06:26:29;2.03;;;1.48;;
81908;SDS011;71372;43.514;1.512;2023-12-20T06:28:55;2.55;;;1.65;;
81908;SDS011;71372;43.514;1.512;2023-12-20T06:31:21;2.88;;;2.00;;
81908;SDS011;71372;43.514;1.512;2023-12-20T06:33:47;3.00;;;1.77;;
81908;SDS011;71372;43.514;1.512;2023-12-20T06:36:15;1.75;;;1.23;;
81908;SDS011;71372;43.514;1.512;2023-12-20T06:38:41;2.55;;;1.77;;
81908;SDS011;71372;43.514;1.512;2023-12-20T06:41:07;2.97;;;2.25;;
81908;SDS011;71372;43.514;1.512;2023-12-20T06:43:33;4.50;;;2.20;;
81908;SDS011;71372;43.514;1.512;2023-12-20T06:46:02;3.15;;;1.95;;
81908;SDS011;71372;43.514;1.512;2023-12-20T06:48:28;2.80;;;2.00;;
81908;SDS011;71372;43.514;1.512;2023-12-20T06:50:54;2.63;;;1.90;;
81908;SDS011;71372;43.514;1.512;2023-12-20T06:53:20;2.90;;;1.63;;
81908;SDS011;71372;43.514;1.512;2023-12-20T06:55:46;5.57;;;1.70;;
81908;SDS011;71372;43.514;1.512;2023-12-20T06:58:12;2.08;;;1.60;;
81908;SDS011;71372;43.514;1.512;2023-12-20T07:00:38;2.75;;;1.90;;
81908;SDS011;71372;43.514;1.512;2023-12-20T07:03:04;3.70;;;2.38;;
81908;SDS011;71372;43.514;1.512;2023-12-20T07:05:30;2.97;;;2.15;;
81908;SDS011;71372;43.514;1.512;2023-12-20T07:07:55;4.15;;;2.70;;
81908;SDS011;71372;43.514;1.512;2023-12-20T07:10:21;3.13;;;2.20;;
81908;SDS011;71372;43.514;1.512;2023-12-20T07:12:47;3.45;;;2.17;;
81908;SDS011;71372;43.514;1.512;2023-12-20T07:15:14;3.72;;;2.25;;
81908;SDS011;71372;43.514;1.512;2023-12-20T07:17:40;2.75;;;2.00;;
81908;SDS011;71372;43.514;1.512;2023-12-20T07:20:06;2.45;;;1.60;;
81908;SDS011;71372;43.514;1.512;2023-12-20T07:22:36;5.53;;;2.05;;
81908;SDS011;71372;43.514;1.512;2023-12-20T07:25:02;3.42;;;2.20;;
81908;SDS011;71372;43.514;1.512;2023-12-20T07:27:29;2.15;;;1.85;;
81908;SDS011;71372;43.514;1.512;2023-12-20T07:29:55;1.50;;;1.13;;
81908;SDS011;71372;43.514;1.512;2023-12-20T07:32:21;1.95;;;1.42;;
81908;SDS011;71372;43.514;1.512;2023-12-20T07:34:47;2.17;;;1.30;;
81908;SDS011;71372;43.514;1.512;2023-12-20T07:37:12;1.63;;;1.42;;
81908;SDS011;71372;43.514;1.512;2023-12-20T07:39:39;1.95;;;1.30;;
81908;SDS011;71372;43.514;1.512;2023-12-20T07:42:06;2.10;;;1.45;;
81908;SDS011;71372;43.514;1.512;2023-12-20T07:44:35;1.80;;;1.30;;
81908;SDS011;71372;43.514;1.512;2023-12-20T07:47:04;1.27;;;0.85;;
81908;SDS011;71372;43.514;1.512;2023-12-20T07:49:30;4.03;;;1.27;;
81908;SDS011;71372;43.514;1.512;2023-12-20T07:51:57;1.90;;;1.33;;
81908;SDS011;71372;43.514;1.512;2023-12-20T07:54:23;1.73;;;1.35;;
81908;SDS011;71372;43.514;1.512;2023-12-20T07:56:49;2.05;;;1.77;;
81908;SDS011;71372;43.514;1.512;2023-12-20T07:59:15;2.97;;;1.33;;
81908;SDS011;71372;43.514;1.512;2023-12-20T08:01:41;1.58;;;1.15;;
81908;SDS011;71372;43.514;1.512;2023-12-20T08:04:08;2.03;;;1.52;;
81908;SDS011;71372;43.514;1.512;2023-12-20T08:06:34;3.08;;;2.10;;
81908;SDS011;71372;43.514;1.512;2023-12-20T08:09:00;1.70;;;1.58;;
81908;SDS011;71372;43.514;1.512;2023-12-20T08:11:26;1.17;;;1.08;;
81908;SDS011;71372;43.514;1.512;2023-12-20T08:13:51;2.33;;;1.77;;
81908;SDS011;71372;43.514;1.512;2023-12-20T08:16:17;1.85;;;1.60;;
81908;SDS011;71372;43.514;1.512;2023-12-20T08:18:43;1.52;;;1.30;;
81908;SDS011;71372;43.514;1.512;2023-12-20T08:21:10;1.75;;;1.45;;
81908;SDS011;71372;43.514;1.512;2023-12-20T08:23:37;3.25;;;1.65;;
81908;SDS011;71372;43.514;1.512;2023-12-20T08:26:03;1.52;;;1.27;;
81908;SDS011;71372;43.514;1.512;2023-12-20T08:28:33;3.08;;;1.70;;
81908;SDS011;71372;43.514;1.512;2023-12-20T08:30:59;4.35;;;2.17;;
81908;SDS011;71372;43.514;1.512;2023-12-20T08:33:25;2.10;;;1.60;;
81908;SDS011;71372;43.514;1.512;2023-12-20T08:35:51;2.30;;;1.50;;
81908;SDS011;71372;43.514;1.512;2023-12-20T08:38:17;1.77;;;1.55;;
81908;SDS011;71372;43.514;1.512;2023-12-20T08:40:43;1.83;;;1.48;;
81908;SDS011;71372;43.514;1.512;2023-12-20T08:43:10;1.25;;;1.15;;
81908;SDS011;71372;43.514;1.512;2023-12-20T08:45:36;2.88;;;1.98;;
81908;SDS011;71372;43.514;1.512;2023-12-20T08:48:03;2.40;;;1.85;;
81908;SDS011;71372;43.514;1.512;2023-12-20T08:50:29;2.47;;;1.70;;
81908;SDS011;71372;43.514;1.512;2023-12-20T08:52:55;1.88;;;1.65;;
81908;SDS011;71372;43.514;1.512;2023-12-20T08:55:21;3.80;;;1.58;;
81908;SDS011;71372;43.514;1.512;2023-12-20T08:57:47;2.55;;;2.15;;
81908;SDS011;71372;43.514;1.512;2023-12-20T09:00:13;3.67;;;2.17;;
81908;SDS011;71372;43.514;1.512;2023-12-20T09:02:39;4.85;;;2.08;;
81908;SDS011;71372;43.514;1.512;2023-12-20T09:05:05;1.38;;;1.00;;
81908;SDS011;71372;43.514;1.512;2023-12-20T09:07:31;4.10;;;1.70;;
81908;SDS011;71372;43.514;1.512;2023-12-20T09:09:58;2.95;;;2.08;;
81908;SDS011;71372;43.514;1.512;2023-12-20T09:12:24;3.50;;;2.20;;
81908;SDS011;71372;43.514;1.512;2023-12-20T09:14:51;2.40;;;1.90;;
81908;SDS011;71372;43.514;1.512;2023-12-20T09:17:17;2.72;;;2.10;;
81908;SDS011;71372;43.514;1.512;2023-12-20T09:19:44;3.10;;;2.28;;
81908;SDS011;71372;43.514;1.512;2023-12-20T09:22:11;2.70;;;2.22;;
81908;SDS011;71372;43.514;1.512;2023-12-20T09:24:38;3.03;;;2.05;;
81908;SDS011;71372;43.514;1.512;2023-12-20T09:27:06;3.03;;;1.75;;
81908;SDS011;71372;43.514;1.512;2023-12-20T09:29:32;2.83;;;2.05;;
81908;SDS011;71372;43.514;1.512;2023-12-20T09:31:58;3.10;;;2.10;;
81908;SDS011;71372;43.514;1.512;2023-12-20T09:34:24;2.58;;;2.10;;
81908;SDS011;71372;43.514;1.512;2023-12-20T09:36:51;3.92;;;2.13;;
81908;SDS011;71372;43.514;1.512;2023-12-20T09:39:18;3.33;;;2.17;;
81908;SDS011;71372;43.514;1.512;2023-12-20T09:41:49;2.90;;;2.30;;
81908;SDS011;71372;43.514;1.512;2023-12-20T09:44:25;2.92;;;2.10;;
81908;SDS011;71372;43.514;1.512;2023-12-20T09:46:51;3.53;;;1.90;;
81908;SDS011;71372;43.514;1.512;2023-12-20T09:49:20;2.47;;;1.73;;
81908;SDS011;71372;43.514;1.512;2023-12-20T09:51:47;4.10;;;2.15;;
81908;SDS011;71372;43.514;1.512;2023-12-20T09:54:13;2.85;;;1.90;;
81908;SDS011;71372;43.514;1.512;2023-12-20T09:56:40;3.50;;;1.80;;
81908;SDS011;71372;43.514;1.512;2023-12-20T09:59:06;2.22;;;1.60;;
81908;SDS011;71372;43.514;1.512;2023-12-20T10:01:33;5.20;;;1.75;;
81908;SDS011;71372;43.514;1.512;2023-12-20T10:04:00;2.75;;;1.50;;
81908;SDS011;71372;43.514;1.512;2023-12-20T10:06:43;2.28;;;1.38;;
81908;SDS011;71372;43.514;1.512;2023-12-20T10:09:10;3.13;;;1.48;;
81908;SDS011;71372;43.514;1.512;2023-12-20T10:11:38;2.55;;;1.10;;
81908;SDS011;71372;43.514;1.512;2023-12-20T10:14:05;6.72;;;2.92;;
81908;SDS011;71372;43.514;1.512;2023-12-20T10:16:32;4.93;;;2.67;;
81908;SDS011;71372;43.514;1.512;2023-12-20T10:18:59;5.15;;;2.42;;
81908;SDS011;71372;43.514;1.512;2023-12-20T10:21:26;4.55;;;2.35;;
81908;SDS011;71372;43.514;1.512;2023-12-20T10:23:57;3.45;;;1.80;;
81908;SDS011;71372;43.514;1.512;2023-12-20T10:26:26;4.03;;;1.50;;
81908;SDS011;71372;43.514;1.512;2023-12-20T10:28:56;3.38;;;1.42;;
81908;SDS011;71372;43.514;1.512;2023-12-20T10:33:53;2.80;;;1.33;;
81908;SDS011;71372;43.514;1.512;2023-12-20T10:36:19;2.30;;;1.40;;
81908;SDS011;71372;43.514;1.512;2023-12-20T10:38:45;2.58;;;1.35;;
81908;SDS011;71372;43.514;1.512;2023-12-20T10:41:12;3.50;;;1.55;;
81908;SDS011;71372;43.514;1.512;2023-12-20T10:43:39;3.90;;;1.50;;
81908;SDS011;71372;43.514;1.512;2023-12-20T10:46:05;1.35;;;1.25;;
81908;SDS011;71372;43.514;1.512;2023-12-20T10:48:31;2.15;;;1.17;;
81908;SDS011;71372;43.514;1.512;2023-12-20T10:50:58;2.80;;;1.35;;
81908;SDS011;71372;43.514;1.512;2023-12-20T10:53:27;2.85;;;1.77;;
81908;SDS011;71372;43.514;1.512;2023-12-20T10:55:54;4.78;;;1.10;;
81908;SDS011;71372;43.514;1.512;2023-12-20T10:58:22;1.83;;;1.30;;
81908;SDS011;71372;43.514;1.512;2023-12-20T11:00:50;5.60;;;1.60;;
81908;SDS011;71372;43.514;1.512;2023-12-20T11:03:25;3.63;;;1.25;;
81908;SDS011;71372;43.514;1.512;2023-12-20T11:05:58;4.32;;;1.10;;
81908;SDS011;71372;43.514;1.512;2023-12-20T11:08:32;3.95;;;1.13;;
81908;SDS011;71372;43.514;1.512;2023-12-20T11:11:07;7.65;;;2.03;;
81908;SDS011;71372;43.514;1.512;2023-12-20T11:13:40;5.63;;;1.98;;
81908;SDS011;71372;43.514;1.512;2023-12-20T11:16:13;1.58;;;1.38;;
81908;SDS011;71372;43.514;1.512;2023-12-20T11:18:40;2.15;;;1.27;;
81908;SDS011;71372;43.514;1.512;2023-12-20T11:21:06;2.17;;;0.90;;
81908;SDS011;71372;43.514;1.512;2023-12-20T11:23:32;1.55;;;1.10;;
81908;SDS011;71372;43.514;1.512;2023-12-20T11:26:02;2.47;;;1.42;;
81908;SDS011;71372;43.514;1.512;2023-12-20T11:28:28;1.63;;;0.98;;
81908;SDS011;71372;43.514;1.512;2023-12-20T11:30:58;2.88;;;0.95;;
81908;SDS011;71372;43.514;1.512;2023-12-20T11:33:30;3.75;;;1.40;;
81908;SDS011;71372;43.514;1.512;2023-12-20T11:36:01;2.05;;;1.20;;
81908;SDS011;71372;43.514;1.512;2023-12-20T11:38:37;2.22;;;1.00;;
81908;SDS011;71372;43.514;1.512;2023-12-20T11:41:05;4.18;;;1.23;;
81908;SDS011;71372;43.514;1.512;2023-12-20T11:43:32;2.80;;;1.15;;
81908;SDS011;71372;43.514;1.512;2023-12-20T11:46:08;3.47;;;1.27;;
81908;SDS011;71372;43.514;1.512;2023-12-20T11:48:38;2.22;;;0.90;;
81908;SDS011;71372;43.514;1.512;2023-12-20T11:51:09;3.63;;;1.13;;
81908;SDS011;71372;43.514;1.512;2023-12-20T11:53:36;4.03;;;1.02;;
81908;SDS011;71372;43.514;1.512;2023-12-20T11:56:03;3.20;;;1.00;;
81908;SDS011;71372;43.514;1.512;2023-12-20T11:58:31;2.42;;;1.00;;
81908;SDS011;71372;43.514;1.512;2023-12-20T12:00:57;3.65;;;1.10;;
81908;SDS011;71372;43.514;1.512;2023-12-20T12:03:24;2.42;;;0.73;;
81908;SDS011;71372;43.514;1.512;2023-12-20T12:05:50;3.88;;;0.90;;
81908;SDS011;71372;43.514;1.512;2023-12-20T12:08:19;2.15;;;1.00;;
81908;SDS011;71372;43.514;1.512;2023-12-20T12:10:45;3.15;;;1.02;;
81908;SDS011;71372;43.514;1.512;2023-12-20T12:13:11;2.65;;;0.90;;
81908;SDS011;71372;43.514;1.512;2023-12-20T12:15:37;4.45;;;0.90;;
81908;SDS011;71372;43.514;1.512;2023-12-20T12:18:03;2.05;;;0.70;;
81908;SDS011;71372;43.514;1.512;2023-12-20T12:20:30;2.25;;;1.08;;
81908;SDS011;71372;43.514;1.512;2023-12-20T12:22:57;3.50;;;0.85;;
81908;SDS011;71372;43.514;1.512;2023-12-20T12:25:24;2.83;;;0.57;;
81908;SDS011;71372;43.514;1.512;2023-12-20T12:27:50;2.28;;;0.80;;
81908;SDS011;71372;43.514;1.512;2023-12-20T12:30:16;2.75;;;0.90;;
81908;SDS011;71372;43.514;1.512;2023-12-20T12:32:44;1.88;;;0.60;;
81908;SDS011;71372;43.514;1.512;2023-12-20T12:35:10;2.05;;;0.60;;
81908;SDS011;71372;43.514;1.512;2023-12-20T12:37:39;2.15;;;0.75;;
81908;SDS011;71372;43.514;1.512;2023-12-20T12:40:10;1.30;;;0.90;;
81908;SDS011;71372;43.514;1.512;2023-12-20T12:42:40;2.33;;;0.80;;
81908;SDS011;71372;43.514;1.512;2023-12-20T12:45:07;1.70;;;0.75;;
81908;SDS011;71372;43.514;1.512;2023-12-20T12:47:33;3.25;;;0.93;;
81908;SDS011;71372;43.514;1.512;2023-12-20T12:50:00;2.30;;;0.55;;
81908;SDS011;71372;43.514;1.512;2023-12-20T12:52:26;2.60;;;0.60;;
81908;SDS011;71372;43.514;1.512;2023-12-20T12:54:53;2.33;;;1.30;;
81908;SDS011;71372;43.514;1.512;2023-12-20T12:57:19;1.42;;;0.50;;
81908;SDS011;71372;43.514;1.512;2023-12-20T12:59:45;2.22;;;0.65;;
81908;SDS011;71372;43.514;1.512;2023-12-20T13:02:12;0.98;;;0.75;;
81908;SDS011;71372;43.514;1.512;2023-12-20T13:04:39;4.45;;;0.88;;
81908;SDS011;71372;43.514;1.512;2023-12-20T13:07:07;3.60;;;1.30;;
81908;SDS011;71372;43.514;1.512;2023-12-20T13:09:33;4.10;;;1.50;;
81908;SDS011;71372;43.514;1.512;2023-12-20T13:11:59;5.00;;;0.90;;
81908;SDS011;71372;43.514;1.512;2023-12-20T13:14:25;5.43;;;0.93;;
81908;SDS011;71372;43.514;1.512;2023-12-20T13:16:51;1.83;;;0.80;;
81908;SDS011;71372;43.514;1.512;2023-12-20T13:19:17;2.53;;;0.60;;
81908;SDS011;71372;43.514;1.512;2023-12-20T13:21:43;3.35;;;0.70;;
81908;SDS011;71372;43.514;1.512;2023-12-20T13:24:08;1.63;;;0.60;;
81908;SDS011;71372;43.514;1.512;2023-12-20T13:26:34;2.65;;;0.60;;
81908;SDS011;71372;43.514;1.512;2023-12-20T13:29:00;3.85;;;1.02;;
81908;SDS011;71372;43.514;1.512;2023-12-20T13:31:26;0.70;;;0.40;;
81908;SDS011;71372;43.514;1.512;2023-12-20T13:33:52;2.90;;;0.85;;
81908;SDS011;71372;43.514;1.512;2023-12-20T13:36:18;3.03;;;0.60;;
81908;SDS011;71372;43.514;1.512;2023-12-20T13:38:44;2.55;;;0.70;;
81908;SDS011;71372;43.514;1.512;2023-12-20T13:41:10;4.25;;;0.90;;
81908;SDS011;71372;43.514;1.512;2023-12-20T13:43:36;4.50;;;0.95;;
81908;SDS011;71372;43.514;1.512;2023-12-20T13:46:02;3.38;;;0.82;;
81908;SDS011;71372;43.514;1.512;2023-12-20T13:48:28;3.97;;;0.90;;
81908;SDS011;71372;43.514;1.512;2023-12-20T13:50:54;4.63;;;0.70;;
81908;SDS011;71372;43.514;1.512;2023-12-20T13:53:20;1.95;;;0.65;;
81908;SDS011;71372;43.514;1.512;2023-12-20T13:55:46;2.92;;;0.63;;
81908;SDS011;71372;43.514;1.512;2023-12-20T13:58:12;4.72;;;1.00;;
81908;SDS011;71372;43.514;1.512;2023-12-20T14:00:38;4.25;;;1.17;;
81908;SDS011;71372;43.514;1.512;2023-12-20T14:03:06;4.55;;;0.95;;
81908;SDS011;71372;43.514;1.512;2023-12-20T14:05:32;2.47;;;0.90;;
81908;SDS011;71372;43.514;1.512;2023-12-20T14:07:59;2.50;;;0.68;;
81908;SDS011;71372;43.514;1.512;2023-12-20T14:10:24;2.13;;;0.68;;
81908;SDS011;71372;43.514;1.512;2023-12-20T14:12:54;2.40;;;0.75;;
81908;SDS011;71372;43.514;1.512;2023-12-20T14:15:20;3.30;;;0.80;;
81908;SDS011;71372;43.514;1.512;2023-12-20T14:17:46;1.60;;;0.73;;
81908;SDS011;71372;43.514;1.512;2023-12-20T14:20:12;4.32;;;0.90;;
81908;SDS011;71372;43.514;1.512;2023-12-20T14:22:38;7.00;;;1.10;;
81908;SDS011;71372;43.514;1.512;2023-12-20T14:25:13;4.38;;;1.15;;
81908;SDS011;71372;43.514;1.512;2023-12-20T14:27:40;3.33;;;1.08;;
81908;SDS011;71372;43.514;1.512;2023-12-20T14:30:09;2.80;;;0.95;;
81908;SDS011;71372;43.514;1.512;2023-12-20T14:32:35;3.70;;;1.25;;
81908;SDS011;71372;43.514;1.512;2023-12-20T14:35:05;8.10;;;1.58;;
81908;SDS011;71372;43.514;1.512;2023-12-20T14:37:32;6.45;;;1.40;;
81908;SDS011;71372;43.514;1.512;2023-12-20T14:39:58;4.80;;;1.08;;
81908;SDS011;71372;43.514;1.512;2023-12-20T14:42:24;3.90;;;1.42;;